createdAt,value
2019-05-22T00:00:58.025Z,77.58
2019-05-22T00:03:36.840Z,77.44
2019-05-22T00:06:11.433Z,76.81
2019-05-22T00:08:41.562Z,76.87
2019-05-22T00:11:12.286Z,76.86
2019-05-22T00:13:44.416Z,76.98
2019-05-22T00:16:25.228Z,77.31
2019-05-22T00:18:56.609Z,77.14
2019-05-22T00:21:25.953Z,77.45
2019-05-22T00:23:59.477Z,77.33
2019-05-22T00:26:29.902Z,77.34
2019-05-22T00:29:01.402Z,77.63
2019-05-22T00:31:31.082Z,77.58
2019-05-22T00:34:09.690Z,77.77
2019-05-22T00:36:38.774Z,77.70
2019-05-22T00:39:08.255Z,77.75
2019-05-22T00:41:40.441Z,77.76
2019-05-22T00:44:14.415Z,78.03
2019-05-22T00:46:47.142Z,78.07
2019-05-22T00:49:20.865Z,77.97
2019-05-22T00:52:10.242Z,78.07
2019-05-22T00:55:02.660Z,78.14
2019-05-22T00:57:48.066Z,77.62
2019-05-22T01:00:24.657Z,77.30
2019-05-22T01:02:56.171Z,77.58
2019-05-22T01:05:29.433Z,77.63
2019-05-22T01:08:00.259Z,77.51
2019-05-22T01:10:33.129Z,77.59
2019-05-22T01:13:09.693Z,77.62
2019-05-22T01:15:42.611Z,77.41
2019-05-22T01:18:15.283Z,77.47
2019-05-22T01:20:49.705Z,77.47
2019-05-22T01:23:23.738Z,77.76
2019-05-22T01:25:54.437Z,77.49
2019-05-22T01:28:32.778Z,77.88
2019-05-22T01:31:09.207Z,77.86
2019-05-22T01:33:45.466Z,78.10
2019-05-22T01:36:45.696Z,78.14
2019-05-22T01:39:50.184Z,78.30
2019-05-22T01:42:27.132Z,78.01
2019-05-22T01:45:06.045Z,77.98
2019-05-22T01:47:49.559Z,77.90
2019-05-22T01:50:32.198Z,78.62
2019-05-22T01:53:03.364Z,78.75
2019-05-22T01:55:34.427Z,79.24
2019-05-22T01:58:05.896Z,79.30
2019-05-22T02:00:36.693Z,78.98
2019-05-22T02:03:07.544Z,79.12
2019-05-22T02:05:36.797Z,79.08
2019-05-22T02:08:11.673Z,79.25
2019-05-22T02:10:42.652Z,79.33
2019-05-22T02:13:19.482Z,79.26
2019-05-22T02:15:51.323Z,79.54
2019-05-22T02:18:24.993Z,79.61
2019-05-22T02:20:57.939Z,79.53
2019-05-22T02:23:31.007Z,79.69
2019-05-22T02:26:02.937Z,79.58
2019-05-22T02:28:32.594Z,79.44
2019-05-22T02:31:01.670Z,79.62
2019-05-22T02:33:33.773Z,79.29
2019-05-22T02:36:06.749Z,79.17
2019-05-22T02:38:40.067Z,79.25
2019-05-22T02:41:09.376Z,79.14
2019-05-22T02:43:41.748Z,79.55
2019-05-22T02:46:14.369Z,79.71
2019-05-22T02:48:44.533Z,79.78
2019-05-22T02:51:16.968Z,79.13
2019-05-22T02:53:46.506Z,79.40
2019-05-22T02:56:18.562Z,79.33
2019-05-22T02:58:47.881Z,79.09
2019-05-22T03:01:19.131Z,78.76
2019-05-22T03:03:49.036Z,78.79
2019-05-22T03:06:20.651Z,78.69
2019-05-22T03:09:36.235Z,78.34
2019-05-22T03:12:11.163Z,77.88
2019-05-22T03:14:43.486Z,78.34
2019-05-22T03:17:36.647Z,78.56
2019-05-22T03:20:11.940Z,78.36
2019-05-22T03:22:55.466Z,78.22
2019-05-22T03:25:30.446Z,78.63
2019-05-22T03:28:09.780Z,78.78
2019-05-22T03:30:43.909Z,78.95
2019-05-22T03:33:18.333Z,79.11
2019-05-22T03:35:53.698Z,78.61
2019-05-22T03:38:23.430Z,78.59
2019-05-22T03:40:57.083Z,78.93
2019-05-22T03:43:31.608Z,79.05
2019-05-22T03:46:23.067Z,78.90
2019-05-22T03:48:54.146Z,79.16
2019-05-22T03:51:23.473Z,78.53
2019-05-22T03:53:56.704Z,78.05
2019-05-22T03:56:30.529Z,78.23
2019-05-22T03:59:03.798Z,77.59
2019-05-22T04:01:33.335Z,78.75
2019-05-22T04:04:21.821Z,78.33
2019-05-22T04:06:56.884Z,78.49
2019-05-22T04:09:27.541Z,78.25
2019-05-22T04:12:00.558Z,78.44
2019-05-22T04:14:34.879Z,78.62
2019-05-22T04:17:10.438Z,78.60
2019-05-22T04:19:50.495Z,78.84
2019-05-22T04:22:16.950Z,78.85
2019-05-22T04:24:49.025Z,78.18
2019-05-22T04:27:20.225Z,77.86
2019-05-22T04:30:05.486Z,77.94
2019-05-22T04:32:39.757Z,78.11
2019-05-22T04:35:11.656Z,78.13
2019-05-22T04:37:44.444Z,77.64
2019-05-22T04:40:53.260Z,77.60
2019-05-22T04:43:26.661Z,77.61
2019-05-22T04:45:56.881Z,77.26
2019-05-22T04:48:29.327Z,77.09
2019-05-22T04:51:05.915Z,76.85
2019-05-22T04:54:03.472Z,76.72
2019-05-22T04:56:42.483Z,76.05
2019-05-22T04:59:13.643Z,75.93
2019-05-22T05:01:44.834Z,75.57
2019-05-22T05:04:27.812Z,76.24
2019-05-22T05:07:03.046Z,76.00
2019-05-22T05:10:01.106Z,75.73
2019-05-22T05:12:33.601Z,75.90
2019-05-22T05:15:38.296Z,76.54
2019-05-22T05:18:32.891Z,76.69
2019-05-22T05:21:24.791Z,76.67
2019-05-22T05:24:10.892Z,76.76
2019-05-22T05:26:54.822Z,76.83
2019-05-22T05:29:29.046Z,76.93
2019-05-22T05:32:00.116Z,76.10
2019-05-22T05:34:59.886Z,75.82
2019-05-22T05:37:29.099Z,76.06
2019-05-22T05:40:36.094Z,76.08
2019-05-22T05:43:06.206Z,76.45
2019-05-22T05:45:37.181Z,76.18
2019-05-22T05:48:11.026Z,76.36
2019-05-22T05:50:42.599Z,75.78
2019-05-22T05:53:19.127Z,76.29
2019-05-22T05:56:13.485Z,75.94
2019-05-22T05:58:43.953Z,75.53
2019-05-22T06:01:25.460Z,75.33
2019-05-22T06:03:56.045Z,76.11
2019-05-22T06:07:15.796Z,75.93
2019-05-22T06:09:44.995Z,76.28
2019-05-22T06:12:14.490Z,76.60
2019-05-22T06:14:44.076Z,76.70
2019-05-22T06:17:52.510Z,76.77
2019-05-22T06:20:22.868Z,76.63
2019-05-22T06:23:48.146Z,76.39
2019-05-22T06:27:18.938Z,76.19
2019-05-22T06:29:56.306Z,76.08
2019-05-22T06:32:54.740Z,75.94
2019-05-22T06:35:28.454Z,75.80
2019-05-22T06:38:06.419Z,75.92
2019-05-22T06:40:36.074Z,75.87
2019-05-22T06:44:01.333Z,76.16
2019-05-22T06:46:47.002Z,76.12
2019-05-22T06:49:43.563Z,76.02
2019-05-22T06:52:12.729Z,75.95
2019-05-22T06:54:42.480Z,76.08
2019-05-22T06:57:15.952Z,76.41
2019-05-22T06:59:49.108Z,76.16
2019-05-22T07:02:19.338Z,76.00
2019-05-22T07:04:48.703Z,75.68
2019-05-22T07:07:21.913Z,76.05
2019-05-22T07:09:53.587Z,75.79
2019-05-22T07:12:24.158Z,75.86
2019-05-22T07:15:28.509Z,75.41
2019-05-22T07:17:58.728Z,75.51
2019-05-22T07:20:30.846Z,75.93
2019-05-22T07:23:03.975Z,75.54
2019-05-22T07:25:36.382Z,75.58
2019-05-22T07:28:09.683Z,75.59
2019-05-22T07:30:39.073Z,75.50
2019-05-22T07:33:08.742Z,75.37
2019-05-22T07:35:50.276Z,74.55
2019-05-22T07:38:12.453Z,74.78
2019-05-22T07:40:42.638Z,74.64
2019-05-22T07:43:11.878Z,74.26
2019-05-22T07:45:43.697Z,74.42
2019-05-22T07:48:15.395Z,74.23
2019-05-22T07:50:49.249Z,74.48
2019-05-22T07:53:20.526Z,74.40
2019-05-22T07:55:51.691Z,74.66
2019-05-22T07:58:21.230Z,74.33
2019-05-22T08:00:54.009Z,74.34
2019-05-22T08:03:25.069Z,74.45
2019-05-22T08:05:56.220Z,74.23
2019-05-22T08:08:26.489Z,73.47
2019-05-22T08:10:57.075Z,72.70
2019-05-22T08:13:29.780Z,72.58
2019-05-22T08:15:59.158Z,72.55
2019-05-22T08:18:30.607Z,71.96
2019-05-22T08:21:01.876Z,72.01
2019-05-22T08:23:36.338Z,71.37
2019-05-22T08:26:06.769Z,70.98
2019-05-22T08:28:36.031Z,70.42
2019-05-22T08:31:05.469Z,69.86
2019-05-22T08:33:35.238Z,70.38
2019-05-22T08:36:09.801Z,69.27
2019-05-22T08:38:40.149Z,69.18
2019-05-22T08:41:10.873Z,68.83
2019-05-22T08:44:11.563Z,68.81
2019-05-22T08:46:12.911Z,68.53
2019-05-22T08:48:47.953Z,68.40
2019-05-22T08:51:14.427Z,68.24
2019-05-22T08:53:48.628Z,68.67
2019-05-22T08:56:19.131Z,68.11
2019-05-22T08:58:51.580Z,67.72
2019-05-22T09:01:21.907Z,67.27
2019-05-22T09:03:51.354Z,66.22
2019-05-22T09:06:21.847Z,65.84
2019-05-22T09:08:51.129Z,64.68
2019-05-22T09:11:20.552Z,64.43
2019-05-22T09:13:52.661Z,63.63
2019-05-22T09:16:22.241Z,63.29
2019-05-22T09:18:52.428Z,62.88
2019-05-22T09:21:24.091Z,62.95
2019-05-22T09:23:53.872Z,62.44
2019-05-22T09:26:23.492Z,61.78
2019-05-22T09:28:52.866Z,61.24
2019-05-22T09:31:26.626Z,60.96
2019-05-22T09:33:55.822Z,60.63
2019-05-22T09:36:25.050Z,60.69
2019-05-22T09:38:56.128Z,60.77
2019-05-22T09:41:25.298Z,60.65
2019-05-22T09:43:54.390Z,60.56
2019-05-22T09:46:24.129Z,60.34
2019-05-22T09:48:53.397Z,60.06
2019-05-22T09:51:25.868Z,60.05
2019-05-22T09:53:57.356Z,61.20
2019-05-22T09:56:26.945Z,61.28
2019-05-22T09:58:56.323Z,61.40
2019-05-22T10:01:26.146Z,61.56
2019-05-22T10:03:55.483Z,61.64
2019-05-22T10:06:25.043Z,61.74
2019-05-22T10:08:54.138Z,61.18
2019-05-22T10:11:23.747Z,61.12
2019-05-22T10:13:57.051Z,60.77
2019-05-22T10:16:26.259Z,61.07
2019-05-22T10:18:55.561Z,61.50
2019-05-22T10:21:30.330Z,60.96
2019-05-22T10:24:03.403Z,60.94
2019-05-22T10:26:33.729Z,61.06
2019-05-22T10:29:02.947Z,60.06
2019-05-22T10:31:32.466Z,60.46
2019-05-22T10:34:03.651Z,60.28
2019-05-22T10:36:33.161Z,60.21
2019-05-22T10:39:02.710Z,60.06
2019-05-22T10:41:34.746Z,59.94
2019-05-22T10:44:06.272Z,59.93
2019-05-22T10:46:35.934Z,59.74
2019-05-22T10:49:08.646Z,58.97
2019-05-22T10:51:37.918Z,59.36
2019-05-22T10:54:07.439Z,58.98
2019-05-22T10:56:36.815Z,58.50
2019-05-22T10:59:07.383Z,58.29
2019-05-22T11:01:37.682Z,58.23
2019-05-22T11:04:08.014Z,57.96
2019-05-22T11:06:38.769Z,57.68
2019-05-22T11:09:10.910Z,57.73
2019-05-22T11:11:41.050Z,57.45
2019-05-22T11:14:11.360Z,57.24
2019-05-22T11:16:40.614Z,57.02
2019-05-22T11:19:10.013Z,57.17
2019-05-22T11:21:42.615Z,56.55
2019-05-22T11:24:12.363Z,57.00
2019-05-22T11:26:41.644Z,56.90
2019-05-22T11:29:11.295Z,56.87
2019-05-22T11:31:42.717Z,56.49
2019-05-22T11:34:12.060Z,56.35
2019-05-22T11:36:41.263Z,55.96
2019-05-22T11:39:16.953Z,56.29
2019-05-22T11:41:47.710Z,56.21
2019-05-22T11:44:19.980Z,56.03
2019-05-22T11:46:49.446Z,55.60
2019-05-22T11:49:18.551Z,55.87
2019-05-22T11:51:47.802Z,55.85
2019-05-22T11:54:17.020Z,56.07
2019-05-22T11:56:48.152Z,56.86
2019-05-22T11:59:18.882Z,56.82
2019-05-22T12:01:48.755Z,56.37
2019-05-22T12:04:21.170Z,56.10
2019-05-22T12:06:53.547Z,55.43
2019-05-22T12:09:23.382Z,55.29
2019-05-22T12:11:53.611Z,56.02
2019-05-22T12:14:24.023Z,55.01
2019-05-22T12:16:53.615Z,55.41
2019-05-22T12:19:23.377Z,55.17
2019-05-22T12:21:52.525Z,55.53
2019-05-22T12:24:27.502Z,55.04
2019-05-22T12:26:54.540Z,55.10
2019-05-22T12:29:24.418Z,55.47
2019-05-22T12:31:59.099Z,54.52
2019-05-22T12:34:31.583Z,53.43
2019-05-22T12:37:00.941Z,51.37
2019-05-22T12:39:30.439Z,50.98
2019-05-22T12:42:00.434Z,49.44
2019-05-22T12:44:30.512Z,48.12
2019-05-22T12:47:01.523Z,47.01
2019-05-22T12:49:35.177Z,46.28
2019-05-22T12:52:09.572Z,45.20
2019-05-22T12:54:47.264Z,44.03
2019-05-22T12:57:18.906Z,43.29
2019-05-22T12:59:49.301Z,43.22
2019-05-22T13:02:18.633Z,42.74
2019-05-22T13:04:49.275Z,41.95
2019-05-22T13:07:18.957Z,41.57
2019-05-22T13:09:48.938Z,41.64
2019-05-22T13:12:19.737Z,41.76
2019-05-22T13:14:49.223Z,41.95
2019-05-22T13:17:18.832Z,41.85
2019-05-22T13:19:48.877Z,41.52
2019-05-22T13:22:19.645Z,41.35
2019-05-22T13:24:50.530Z,40.63
2019-05-22T13:27:20.657Z,40.27
2019-05-22T13:29:50.782Z,39.94
2019-05-22T13:32:20.924Z,39.00
2019-05-22T13:34:56.469Z,38.80
2019-05-22T13:37:30.607Z,38.56
2019-05-22T13:40:03.277Z,37.69
2019-05-22T13:42:35.617Z,38.29
2019-05-22T13:45:05.791Z,38.66
2019-05-22T13:47:35.302Z,37.25
2019-05-22T13:50:08.065Z,35.40
2019-05-22T13:52:39.263Z,34.11
2019-05-22T13:55:13.273Z,33.73
2019-05-22T13:57:44.310Z,34.28
2019-05-22T14:00:18.133Z,34.94
2019-05-22T14:02:47.557Z,34.74
2019-05-22T14:05:18.558Z,33.18
2019-05-22T14:07:50.686Z,33.17
2019-05-22T14:10:23.061Z,32.39
2019-05-22T14:12:56.493Z,32.62
2019-05-22T14:15:27.328Z,32.97
2019-05-22T14:17:57.545Z,32.92
2019-05-22T14:20:27.158Z,30.40
2019-05-22T14:22:59.791Z,27.89
2019-05-22T14:25:33.541Z,26.77
2019-05-22T14:28:05.517Z,27.27
2019-05-22T14:30:34.670Z,27.71
2019-05-22T14:33:05.110Z,28.52
2019-05-22T14:35:48.496Z,26.70
2019-05-22T14:38:12.084Z,25.13
2019-05-22T14:40:44.001Z,23.70
2019-05-22T14:43:13.639Z,22.09
2019-05-22T14:45:43.561Z,22.91
2019-05-22T14:48:13.874Z,23.61
2019-05-22T14:50:43.301Z,22.93
2019-05-22T14:53:13.002Z,21.62
2019-05-22T14:55:42.388Z,21.10
2019-05-22T14:58:13.062Z,19.97
2019-05-22T15:00:42.579Z,20.83
2019-05-22T15:03:16.008Z,22.62
2019-05-22T15:05:52.050Z,23.43
2019-05-22T15:08:21.732Z,21.58
2019-05-22T15:10:52.599Z,21.55
2019-05-22T15:13:22.593Z,21.96
2019-05-22T15:15:51.855Z,21.43
2019-05-22T15:18:20.958Z,22.29
2019-05-22T15:21:02.457Z,21.95
2019-05-22T15:23:33.479Z,20.86
2019-05-22T15:26:06.379Z,20.07
2019-05-22T15:28:35.541Z,20.12
2019-05-22T15:31:08.308Z,20.13
2019-05-22T15:33:37.984Z,19.13
2019-05-22T15:36:10.478Z,18.48
2019-05-22T15:38:44.332Z,18.05
2019-05-22T15:41:15.276Z,17.65
2019-05-22T15:43:51.611Z,17.71
2019-05-22T15:46:18.259Z,17.71
2019-05-22T15:48:48.821Z,18.20
2019-05-22T15:51:22.181Z,18.69
2019-05-22T15:53:53.055Z,19.65
2019-05-22T15:56:23.002Z,20.67
2019-05-22T15:58:53.600Z,21.96
2019-05-22T16:01:24.852Z,22.51
2019-05-22T16:03:54.844Z,22.65
2019-05-22T16:06:25.559Z,23.96
2019-05-22T16:08:54.834Z,24.25
2019-05-22T16:11:26.364Z,24.69
2019-05-22T16:13:56.978Z,24.80
2019-05-22T16:16:26.877Z,25.97
2019-05-22T16:18:57.972Z,26.10
2019-05-22T16:21:29.027Z,26.32
2019-05-22T16:23:59.167Z,26.27
2019-05-22T16:26:31.075Z,26.44
2019-05-22T16:29:02.205Z,26.66
2019-05-22T16:31:32.620Z,26.87
2019-05-22T16:34:03.171Z,27.42
2019-05-22T16:36:32.983Z,27.87
2019-05-22T16:39:04.240Z,27.40
2019-05-22T16:41:34.368Z,27.41
2019-05-22T16:44:06.946Z,27.94
2019-05-22T16:46:36.039Z,27.97
2019-05-22T16:49:05.499Z,28.30
2019-05-22T16:51:35.686Z,28.38
2019-05-22T16:54:08.605Z,28.17
2019-05-22T16:56:41.165Z,28.14
2019-05-22T16:59:13.342Z,28.33
2019-05-22T17:01:57.744Z,28.87
2019-05-22T17:04:13.525Z,29.19
2019-05-22T17:06:46.094Z,29.10
2019-05-22T17:09:19.347Z,29.06
2019-05-22T17:11:53.838Z,29.33
2019-05-22T17:14:24.929Z,29.09
2019-05-22T17:16:54.726Z,29.74
2019-05-22T17:19:27.614Z,30.02
2019-05-22T17:21:58.120Z,30.00
2019-05-22T17:24:27.815Z,30.70
2019-05-22T17:26:57.308Z,31.07
2019-05-22T17:29:27.223Z,31.07
2019-05-22T17:32:10.227Z,31.30
2019-05-22T17:34:45.721Z,31.07
2019-05-22T17:37:18.172Z,31.35
2019-05-22T17:39:48.536Z,31.19
2019-05-22T17:42:24.946Z,31.47
2019-05-22T17:44:57.227Z,32.11
2019-05-22T17:47:28.064Z,32.56
2019-05-22T17:49:57.838Z,32.91
2019-05-22T17:52:27.739Z,33.22
2019-05-22T17:55:00.507Z,33.74
2019-05-22T17:57:30.835Z,34.19
2019-05-22T18:00:00.459Z,34.32
2019-05-22T18:02:40.225Z,34.42
2019-05-22T18:05:11.827Z,34.70
2019-05-22T18:07:42.095Z,34.88
2019-05-22T18:10:13.260Z,35.08
2019-05-22T18:12:45.065Z,35.32
2019-05-22T18:15:17.896Z,35.70
2019-05-22T18:17:51.563Z,35.96
2019-05-22T18:20:24.471Z,36.03
2019-05-22T18:22:55.992Z,36.37
2019-05-22T18:25:25.767Z,36.56
2019-05-22T18:28:06.727Z,36.76
2019-05-22T18:30:39.942Z,36.68
2019-05-22T18:33:14.199Z,36.91
2019-05-22T18:35:44.909Z,37.78
2019-05-22T18:38:15.108Z,37.96
2019-05-22T18:40:44.915Z,37.95
2019-05-22T18:43:18.865Z,38.40
2019-05-22T18:45:48.617Z,38.92
2019-05-22T18:48:18.550Z,39.11
2019-05-22T18:50:48.385Z,39.19
2019-05-22T18:53:44.426Z,39.68
2019-05-22T18:56:27.507Z,40.43
2019-05-22T18:58:59.240Z,40.32
2019-05-22T19:01:30.545Z,40.84
2019-05-22T19:04:25.642Z,41.11
2019-05-22T19:10:24.551Z,42.03
2019-05-22T19:12:56.306Z,42.43
2019-05-22T19:15:30.335Z,42.86
2019-05-22T19:18:03.857Z,42.83
2019-05-22T19:20:35.279Z,42.98
2019-05-22T19:23:05.129Z,43.26
2019-05-22T19:25:42.749Z,43.32
2019-05-22T19:28:13.007Z,43.62
2019-05-22T19:30:42.907Z,43.82
2019-05-22T19:33:17.242Z,44.13
2019-05-22T19:35:49.367Z,44.30
2019-05-22T19:38:22.948Z,44.32
2019-05-22T19:40:54.609Z,44.52
2019-05-22T19:43:24.068Z,44.59
2019-05-22T19:45:53.309Z,44.59
2019-05-22T19:48:25.374Z,44.89
2019-05-22T19:50:55.167Z,44.83
2019-05-22T19:53:25.107Z,44.90
2019-05-22T19:55:54.692Z,45.09
2019-05-22T19:58:24.583Z,45.40
2019-05-22T20:00:53.921Z,45.50
2019-05-22T20:03:25.639Z,45.56
2019-05-22T20:05:58.259Z,45.84
2019-05-22T20:08:29.964Z,46.15
2019-05-22T20:11:00.982Z,46.03
2019-05-22T20:13:30.451Z,46.02
2019-05-22T20:16:07.082Z,46.11
2019-05-22T20:18:37.361Z,46.26
2019-05-22T20:21:06.512Z,46.36
2019-05-22T20:23:37.048Z,46.30
2019-05-22T20:26:06.916Z,46.38
2019-05-22T20:28:36.688Z,46.52
2019-05-22T20:31:07.544Z,46.56
2019-05-22T20:33:37.642Z,46.45
2019-05-22T20:36:08.734Z,46.64
2019-05-22T20:38:40.695Z,46.79
2019-05-22T20:41:10.780Z,46.68
2019-05-22T20:43:44.099Z,47.25
2019-05-22T20:46:18.568Z,47.54
2019-05-22T20:48:49.297Z,48.24
2019-05-22T20:51:21.676Z,48.97
2019-05-22T20:53:54.681Z,49.11
2019-05-22T20:56:24.592Z,49.35
2019-05-22T20:58:54.472Z,49.76
2019-05-22T21:01:24.803Z,49.65
2019-05-22T21:03:55.337Z,49.75
2019-05-22T21:06:29.358Z,49.96
2019-05-22T21:08:58.205Z,50.28
2019-05-22T21:11:29.371Z,50.07
2019-05-22T21:14:00.421Z,50.29
2019-05-22T21:16:30.533Z,50.64
2019-05-22T21:19:01.329Z,50.59
2019-05-22T21:21:34.351Z,50.42
2019-05-22T21:24:11.586Z,50.82
2019-05-22T21:26:41.264Z,51.18
2019-05-22T21:29:13.307Z,51.49
2019-05-22T21:31:47.893Z,51.44
2019-05-22T21:34:18.604Z,51.23
2019-05-22T21:36:47.769Z,51.53
2019-05-22T21:39:18.002Z,52.48
2019-05-22T21:41:48.316Z,52.67
2019-05-22T21:44:17.681Z,53.37
2019-05-22T21:46:47.067Z,53.55
2019-05-22T21:49:18.015Z,53.79
2019-05-22T21:51:47.345Z,54.09
2019-05-22T21:54:17.742Z,54.33
2019-05-22T21:56:47.074Z,54.54
2019-05-22T21:59:16.713Z,54.57
2019-05-22T22:02:03.296Z,54.54
2019-05-22T22:04:39.430Z,54.49
2019-05-22T22:07:09.377Z,54.84
2019-05-22T22:09:38.854Z,55.05
2019-05-22T22:12:09.175Z,55.30
2019-05-22T22:14:39.956Z,55.70
2019-05-22T22:17:10.124Z,55.81
2019-05-22T22:19:41.838Z,55.96
2019-05-22T22:22:14.516Z,56.45
2019-05-22T22:24:43.647Z,56.40
2019-05-22T22:27:15.885Z,56.55
2019-05-22T22:29:47.865Z,56.74
2019-05-22T22:32:18.579Z,57.26
2019-05-22T22:34:48.650Z,57.17
2019-05-22T22:37:19.093Z,57.45
2019-05-22T22:39:54.490Z,57.60
2019-05-22T22:42:26.463Z,57.94
2019-05-22T22:44:57.304Z,57.92
2019-05-22T22:47:34.200Z,58.12
2019-05-22T22:50:07.551Z,58.16
2019-05-22T22:52:37.415Z,58.29
2019-05-22T22:55:13.034Z,58.55
2019-05-22T22:57:42.861Z,58.63
2019-05-22T23:00:13.667Z,58.74
2019-05-22T23:02:43.711Z,58.73
2019-05-22T23:05:16.076Z,59.41
2019-05-22T23:07:48.211Z,59.64
2019-05-22T23:10:19.287Z,59.65
2019-05-22T23:12:48.359Z,59.48
2019-05-22T23:15:18.862Z,59.82
2019-05-22T23:17:53.131Z,60.33
2019-05-22T23:20:21.095Z,60.08
2019-05-22T23:22:49.354Z,60.49
2019-05-22T23:25:21.248Z,60.45
2019-05-22T23:27:50.699Z,60.63
2019-05-22T23:30:20.487Z,60.63
2019-05-22T23:32:51.095Z,60.83
2019-05-22T23:35:25.706Z,60.84
2019-05-22T23:37:54.922Z,61.02
2019-05-22T23:40:27.493Z,61.23
2019-05-22T23:42:56.981Z,61.23
2019-05-22T23:45:29.033Z,61.31
2019-05-22T23:48:14.260Z,61.70
2019-05-22T23:50:46.442Z,61.90
2019-05-22T23:53:16.096Z,61.78
2019-05-22T23:55:48.777Z,61.86
2019-05-22T23:58:20.035Z,61.90
